createdAt,value
2019-01-23T06:30:24.805Z,22.50
2019-01-23T06:32:53.553Z,26.17
2019-01-23T06:35:22.552Z,10.37
2019-01-23T06:37:52.113Z,27.93
2019-01-23T06:40:21.281Z,29.10
2019-01-23T06:42:50.312Z,25.80
2019-01-23T06:45:20.044Z,9.17
2019-01-23T06:47:49.407Z,25.13
2019-01-23T06:50:20.768Z,20.63
2019-01-23T06:52:49.958Z,30.27
2019-01-23T06:55:20.203Z,32.93
2019-01-23T06:57:49.347Z,27.10
2019-01-23T07:00:21.634Z,32.67
2019-01-23T07:02:50.703Z,33.63
2019-01-23T07:05:19.675Z,27.63
2019-01-23T07:07:48.909Z,18.10
2019-01-23T07:10:19.853Z,34.33
2019-01-23T07:12:49.062Z,33.97
2019-01-23T07:15:18.049Z,31.30
2019-01-23T07:17:47.093Z,35.63
2019-01-23T07:20:18.902Z,35.90
2019-01-23T07:22:48.224Z,35.47
2019-01-23T07:25:17.383Z,35.20
2019-01-23T07:27:46.394Z,36.40
2019-01-23T07:30:24.115Z,34.90
2019-01-23T07:32:48.755Z,33.33
2019-01-23T07:35:17.517Z,28.70
2019-01-23T07:37:46.527Z,36.23
2019-01-23T07:40:15.956Z,33.97
2019-01-23T07:42:44.400Z,35.47
2019-01-23T07:45:14.214Z,35.67
2019-01-23T07:47:43.232Z,36.77
2019-01-23T07:50:11.788Z,38.33
2019-01-23T07:52:41.376Z,34.40
2019-01-23T07:55:12.480Z,34.07
2019-01-23T07:57:41.771Z,37.93
2019-01-23T08:00:17.241Z,39.27
2019-01-23T08:02:46.494Z,10.70
2019-01-23T08:05:19.517Z,35.47
2019-01-23T08:07:45.295Z,28.57
2019-01-23T08:10:15.289Z,35.90
2019-01-23T08:12:44.157Z,39.00
2019-01-23T08:15:16.194Z,32.77
2019-01-23T08:17:45.121Z,22.33
2019-01-23T08:20:18.343Z,33.83
2019-01-23T08:22:47.255Z,39.20
2019-01-23T08:25:16.512Z,25.27
2019-01-23T08:27:45.341Z,43.63
2019-01-23T08:30:15.260Z,38.57
2019-01-23T08:32:46.856Z,40.40
2019-01-23T08:35:18.151Z,35.57
2019-01-23T08:37:48.505Z,40.17
2019-01-23T08:40:18.315Z,39.90
2019-01-23T08:42:47.256Z,40.03
2019-01-23T08:45:16.381Z,42.20
2019-01-23T08:47:45.802Z,38.30
2019-01-23T08:50:25.560Z,28.40
2019-01-23T08:52:55.099Z,40.97
2019-01-23T08:55:24.566Z,41.23
2019-01-23T08:57:54.244Z,33.33
2019-01-23T09:00:24.706Z,41.77
2019-01-23T09:02:53.896Z,42.07
2019-01-23T09:05:22.675Z,39.83
2019-01-23T09:07:51.771Z,43.97
2019-01-23T09:10:22.871Z,42.30
2019-01-23T09:12:52.817Z,43.80
2019-01-23T09:15:22.251Z,39.97
2019-01-23T09:17:51.781Z,10.77
2019-01-23T09:20:20.715Z,25.17
2019-01-23T09:22:49.772Z,24.07
2019-01-23T09:25:21.071Z,37.20
2019-01-23T09:27:50.462Z,41.17
2019-01-23T09:30:23.277Z,42.63
2019-01-23T09:33:15.095Z,42.23
2019-01-23T09:36:01.896Z,40.13
2019-01-23T09:38:49.009Z,42.83
2019-01-23T09:41:31.696Z,45.97
2019-01-23T09:44:10.215Z,35.37
2019-01-23T09:47:28.136Z,36.40
2019-01-23T09:50:09.262Z,45.93
2019-01-23T09:52:51.628Z,41.13
2019-01-23T09:55:22.018Z,32.10
2019-01-23T09:57:56.068Z,43.17
2019-01-23T10:00:27.369Z,44.30
2019-01-23T10:02:56.699Z,38.87
2019-01-23T10:05:26.205Z,43.23
2019-01-23T10:07:55.079Z,34.67
2019-01-23T10:10:25.282Z,43.40
2019-01-23T10:12:54.463Z,41.53
2019-01-23T10:15:28.793Z,45.40
2019-01-23T10:17:57.753Z,41.67
2019-01-23T10:20:27.332Z,43.53
2019-01-23T10:22:58.885Z,46.13
2019-01-23T10:25:27.907Z,35.53
2019-01-23T10:27:57.033Z,42.03
2019-01-23T10:30:26.891Z,43.47
2019-01-23T10:32:57.377Z,35.20
2019-01-23T10:35:26.459Z,40.27
2019-01-23T10:37:55.903Z,44.53
2019-01-23T10:40:26.697Z,41.00
2019-01-23T10:42:56.211Z,37.03
2019-01-23T10:45:25.321Z,43.17
2019-01-23T10:47:56.175Z,40.57
2019-01-23T10:50:24.360Z,40.80
2019-01-23T10:52:53.883Z,42.53
2019-01-23T10:55:23.408Z,42.53
2019-01-23T10:57:52.712Z,41.37
2019-01-23T11:00:22.083Z,42.37
2019-01-23T11:02:51.487Z,42.63
2019-01-23T11:05:21.387Z,43.73
2019-01-23T11:07:50.123Z,40.07
2019-01-23T11:10:21.870Z,39.70
2019-01-23T11:12:50.811Z,39.63
2019-01-23T11:15:19.908Z,31.03
2019-01-23T11:17:49.332Z,25.57
2019-01-23T11:20:19.131Z,28.80
2019-01-23T11:22:48.669Z,39.47
2019-01-23T11:25:17.496Z,45.33
2019-01-23T11:27:46.388Z,39.33
2019-01-23T11:30:19.033Z,40.20
2019-01-23T11:32:47.901Z,23.60
2019-01-23T11:35:17.984Z,39.40
2019-01-23T11:37:47.174Z,38.00
2019-01-23T11:40:18.848Z,32.03
2019-01-23T11:42:48.880Z,35.63
2019-01-23T11:45:17.713Z,40.63
2019-01-23T11:47:46.780Z,30.10
2019-01-23T11:50:22.903Z,28.07
2019-01-23T11:52:46.970Z,34.17
2019-01-23T11:55:16.144Z,28.40
2019-01-23T11:57:45.778Z,23.57
2019-01-23T12:00:18.539Z,24.23
2019-01-23T12:02:47.354Z,34.73
2019-01-23T12:05:18.222Z,30.70
2019-01-23T12:07:49.685Z,34.37
2019-01-23T12:10:20.388Z,32.20
2019-01-23T12:12:49.257Z,30.17
2019-01-23T12:15:20.060Z,27.23
2019-01-23T12:17:49.740Z,28.67
2019-01-23T12:20:19.675Z,15.80
2019-01-23T12:22:48.823Z,24.27
2019-01-23T12:25:17.708Z,17.27
2019-01-23T12:27:46.681Z,16.50
2019-01-23T12:30:19.847Z,13.23
2019-01-23T12:32:48.599Z,18.50
2019-01-23T12:35:17.077Z,16.83
2019-01-23T12:37:45.997Z,14.73
2019-01-23T12:40:16.620Z,19.00
2019-01-23T12:42:45.727Z,21.23
2019-01-23T12:45:17.597Z,13.93
2019-01-23T12:47:46.499Z,11.30
2019-01-23T12:50:17.077Z,20.53
2019-01-23T12:52:45.819Z,20.70
2019-01-23T12:55:15.036Z,17.20
2019-01-23T12:57:43.974Z,19.73
2019-01-23T13:00:15.775Z,17.23
2019-01-23T13:02:45.257Z,15.37
2019-01-23T13:05:14.688Z,25.20
2019-01-23T13:07:44.237Z,25.87
2019-01-23T13:10:15.471Z,27.83
2019-01-23T13:12:44.216Z,19.43
2019-01-23T13:15:15.059Z,28.90
2019-01-23T13:17:44.633Z,17.40
2019-01-23T13:20:14.817Z,25.63
2019-01-23T13:22:44.341Z,19.43
2019-01-23T13:25:15.811Z,23.37
2019-01-23T13:27:44.713Z,27.07
2019-01-23T13:30:16.643Z,25.57
2019-01-23T13:32:46.141Z,29.10
2019-01-23T13:35:16.949Z,28.43
2019-01-23T13:37:45.400Z,25.93
2019-01-23T13:40:18.446Z,25.23
2019-01-23T13:42:47.215Z,29.57
2019-01-23T13:45:16.555Z,20.30
2019-01-23T13:47:45.732Z,25.37
2019-01-23T13:50:14.804Z,27.37
2019-01-23T13:52:43.927Z,23.10
2019-01-23T13:55:13.876Z,28.10
2019-01-23T13:57:44.384Z,26.43
2019-01-23T14:00:18.253Z,26.57
2019-01-23T14:02:46.977Z,24.67
2019-01-23T14:05:15.880Z,21.17
2019-01-23T14:07:44.581Z,23.17
2019-01-23T14:10:14.270Z,22.10
2019-01-23T14:12:44.084Z,19.30
2019-01-23T14:15:17.464Z,21.17
2019-01-23T14:17:47.217Z,16.70
2019-01-23T14:20:16.035Z,26.20
2019-01-23T14:22:45.168Z,28.83
2019-01-23T14:25:14.889Z,24.63
2019-01-23T14:27:43.947Z,26.30
2019-01-23T14:30:17.099Z,26.67
2019-01-23T14:32:46.643Z,27.03
2019-01-23T14:35:15.803Z,20.73
2019-01-23T14:37:44.656Z,26.20
2019-01-23T14:40:13.793Z,27.53
2019-01-23T14:42:42.929Z,28.63
2019-01-23T14:45:12.786Z,27.07
2019-01-23T14:47:42.223Z,27.33
2019-01-23T14:50:12.379Z,22.50
2019-01-23T14:52:41.335Z,22.70
2019-01-23T14:55:10.738Z,29.43
2019-01-23T14:57:40.080Z,15.13
2019-01-23T15:00:14.809Z,15.90
2019-01-23T15:02:43.879Z,29.43
2019-01-23T15:05:12.780Z,30.30
2019-01-23T15:07:42.285Z,18.00
2019-01-23T15:10:12.832Z,32.33
2019-01-23T15:12:42.256Z,28.07
2019-01-23T15:15:11.296Z,20.20
2019-01-23T15:17:40.899Z,30.83
2019-01-23T15:20:14.409Z,22.70
2019-01-23T15:22:43.595Z,29.60
2019-01-23T15:25:12.819Z,28.30
2019-01-23T15:27:41.969Z,30.70
2019-01-23T15:30:12.051Z,30.63
2019-01-23T15:32:42.610Z,20.07
2019-01-23T15:35:12.488Z,36.67
2019-01-23T15:37:41.210Z,21.80
2019-01-23T15:40:12.215Z,33.90
2019-01-23T15:42:41.679Z,34.03
2019-01-23T15:45:10.879Z,31.03
2019-01-23T15:47:39.917Z,32.57
2019-01-23T15:50:11.097Z,31.20
2019-01-23T15:52:39.818Z,34.80
2019-01-23T15:55:11.969Z,27.40
2019-01-23T15:57:40.837Z,29.20
2019-01-23T16:00:15.671Z,15.33
2019-01-23T16:02:44.622Z,35.37
2019-01-23T16:05:13.543Z,35.27
2019-01-23T16:07:42.333Z,32.00
2019-01-23T16:10:13.141Z,27.87
2019-01-23T16:12:42.603Z,33.33
2019-01-23T16:15:11.429Z,36.13
2019-01-23T16:17:40.587Z,26.80
2019-01-23T16:20:10.303Z,36.03
2019-01-23T16:22:39.238Z,35.67
2019-01-23T16:25:09.607Z,35.97
2019-01-23T16:27:39.095Z,21.23
2019-01-23T16:30:12.473Z,26.93
2019-01-23T16:32:41.322Z,37.17
2019-01-23T16:35:10.261Z,30.93
2019-01-23T16:37:39.362Z,34.23
2019-01-23T16:40:08.336Z,35.03
2019-01-23T16:42:39.196Z,36.83
2019-01-23T16:45:08.713Z,36.63
2019-01-23T16:47:38.254Z,33.73
2019-01-23T16:50:12.151Z,28.70
2019-01-23T16:52:41.323Z,34.73
2019-01-23T16:55:10.705Z,24.27
2019-01-23T16:57:39.585Z,21.53
2019-01-23T17:00:10.732Z,32.50
2019-01-23T17:02:40.706Z,38.20
2019-01-23T17:05:12.680Z,37.07
2019-01-23T17:07:41.435Z,32.33
2019-01-23T17:10:13.396Z,37.60
2019-01-23T17:12:42.288Z,32.93
2019-01-23T17:15:11.847Z,37.37
2019-01-23T17:17:41.054Z,36.40
2019-01-23T17:20:11.107Z,37.50
2019-01-23T17:22:40.414Z,35.80
2019-01-23T17:25:10.655Z,37.50
2019-01-23T17:27:39.897Z,28.10
2019-01-23T17:30:10.104Z,18.80
2019-01-23T17:32:45.509Z,31.70
2019-01-23T17:35:10.978Z,37.10
2019-01-23T17:37:39.792Z,33.80
2019-01-23T17:40:11.164Z,37.27
2019-01-23T17:42:41.793Z,33.03
2019-01-23T17:45:13.691Z,34.40
2019-01-23T17:47:42.479Z,31.30
2019-01-23T17:50:13.452Z,35.90
2019-01-23T17:52:43.026Z,32.80
2019-01-23T17:55:18.795Z,29.40
2019-01-23T17:57:48.313Z,26.23
2019-01-23T18:00:20.612Z,31.43
2019-01-23T18:02:52.903Z,32.20
2019-01-23T18:05:18.545Z,27.87
2019-01-23T18:07:48.641Z,24.23
2019-01-23T18:10:17.739Z,27.90
2019-01-23T18:12:46.534Z,20.50
2019-01-23T18:15:17.539Z,26.23
2019-01-23T18:17:46.341Z,24.50
2019-01-23T18:20:18.372Z,24.37
2019-01-23T18:22:47.512Z,25.87
2019-01-23T18:25:16.798Z,24.13
2019-01-23T18:27:45.760Z,27.97
2019-01-23T18:30:16.873Z,19.70
2019-01-23T18:32:46.625Z,26.27
2019-01-23T18:35:31.241Z,17.67
2019-01-23T18:38:09.081Z,28.37
2019-01-23T18:40:50.732Z,27.40
2019-01-23T18:44:39.361Z,26.10
2019-01-23T18:47:48.190Z,27.43
2019-01-23T18:50:33.632Z,26.40
2019-01-23T18:53:03.279Z,28.60
2019-01-23T18:55:32.144Z,27.00
2019-01-23T18:58:01.311Z,24.43
2019-01-23T19:00:30.840Z,28.63
2019-01-23T19:03:06.741Z,27.57
2019-01-23T19:05:31.059Z,26.53
2019-01-23T19:08:00.761Z,25.30
2019-01-23T19:10:30.193Z,28.73
2019-01-23T19:13:00.003Z,25.37
2019-01-23T19:15:28.877Z,24.70
2019-01-23T19:17:57.779Z,17.57
2019-01-23T19:20:28.011Z,24.67
2019-01-23T19:22:57.540Z,25.97
2019-01-23T19:25:27.013Z,23.20
2019-01-23T19:27:56.375Z,30.63
2019-01-23T19:30:25.272Z,24.73
2019-01-23T19:32:54.724Z,26.27
2019-01-23T19:35:23.739Z,26.20
2019-01-23T19:37:52.680Z,23.97
2019-01-23T19:40:21.676Z,25.63
2019-01-23T19:42:51.305Z,23.87
2019-01-23T19:45:22.347Z,23.47
2019-01-23T19:47:51.967Z,15.93
2019-01-23T19:50:22.399Z,24.70
2019-01-23T19:52:52.663Z,22.00
2019-01-23T19:55:21.919Z,22.73
2019-01-23T19:57:51.307Z,19.13
2019-01-23T20:00:22.548Z,25.43
2019-01-23T20:02:52.052Z,16.13
2019-01-23T20:05:25.827Z,27.70
2019-01-23T20:07:54.998Z,24.67
2019-01-23T20:10:25.107Z,25.03
2019-01-23T20:12:54.223Z,27.27
2019-01-23T20:15:23.685Z,17.53
2019-01-23T20:17:55.778Z,26.00
2019-01-23T20:20:24.583Z,29.27
2019-01-23T20:22:53.674Z,29.63
2019-01-23T20:25:24.074Z,30.67
2019-01-23T20:27:52.952Z,28.70
2019-01-23T20:30:28.673Z,27.20
2019-01-23T20:32:57.763Z,15.70
2019-01-23T20:35:26.942Z,24.40
2019-01-23T20:37:55.665Z,27.67
2019-01-23T20:40:24.740Z,27.30
2019-01-23T20:42:53.472Z,25.87
2019-01-23T20:45:22.327Z,25.87
2019-01-23T20:47:51.067Z,20.10
2019-01-23T20:50:23.232Z,14.83
2019-01-23T20:52:52.791Z,23.40
2019-01-23T20:55:21.915Z,22.27
2019-01-23T20:57:51.067Z,25.23
2019-01-23T21:00:23.001Z,26.13
2019-01-23T21:02:52.582Z,24.67
2019-01-23T21:05:21.734Z,22.87
2019-01-23T21:07:51.723Z,23.90
2019-01-23T21:10:21.393Z,25.10
2019-01-23T21:12:51.842Z,21.67
2019-01-23T21:15:24.052Z,24.37
2019-01-23T21:17:54.846Z,21.50
2019-01-23T21:20:25.325Z,22.40
2019-01-23T21:22:54.565Z,28.00
2019-01-23T21:25:24.077Z,26.83
2019-01-23T21:27:53.555Z,30.37
2019-01-23T21:30:26.049Z,31.60
2019-01-23T21:32:55.642Z,27.90
2019-01-23T21:35:24.423Z,30.40
2019-01-23T21:37:53.538Z,31.83
2019-01-23T21:40:29.291Z,35.67
2019-01-23T21:42:58.260Z,30.87
2019-01-23T21:45:27.977Z,24.53
2019-01-23T21:47:57.017Z,31.23
2019-01-23T21:50:26.676Z,30.77
2019-01-23T21:52:55.601Z,21.67
2019-01-23T21:55:25.747Z,34.43
